createdAt,value
2023-03-08T00:01:19.427Z,15.47
2023-03-08T00:03:46.966Z,15.33
2023-03-08T00:06:14.757Z,15.57
2023-03-08T00:08:48.766Z,15.55
2023-03-08T00:11:17.323Z,15.85
2023-03-08T00:13:44.554Z,15.78
2023-03-08T00:16:12.080Z,15.52
2023-03-08T00:18:42.643Z,15.82
2023-03-08T00:21:14.534Z,15.81
2023-03-08T00:23:44.392Z,16.13
2023-03-08T00:26:11.684Z,16.13
2023-03-08T00:28:38.662Z,16.37
2023-03-08T00:31:07.221Z,16.12
2023-03-08T00:33:35.200Z,16.12
2023-03-08T00:36:22.029Z,16.29
2023-03-08T00:38:50.522Z,16.49
2023-03-08T00:41:17.721Z,16.20
2023-03-08T00:43:44.927Z,16.19
2023-03-08T00:46:12.045Z,16.39
2023-03-08T00:48:38.966Z,16.65
2023-03-08T00:51:05.998Z,16.26
2023-03-08T00:53:32.704Z,16.03
2023-03-08T00:56:00.038Z,16.48
2023-03-08T00:58:30.522Z,16.78
2023-03-08T01:00:57.840Z,16.67
2023-03-08T01:03:25.207Z,16.66
2023-03-08T01:05:54.134Z,16.37
2023-03-08T01:08:21.585Z,16.85
2023-03-08T01:10:49.300Z,16.40
2023-03-08T01:13:16.842Z,16.65
2023-03-08T01:15:44.072Z,16.89
2023-03-08T01:18:10.581Z,16.76
2023-03-08T01:20:38.017Z,16.46
2023-03-08T01:23:04.833Z,16.42
2023-03-08T01:25:31.442Z,16.33
2023-03-08T01:27:58.088Z,16.03
2023-03-08T01:30:24.793Z,16.34
2023-03-08T01:32:51.339Z,16.50
2023-03-08T01:35:18.246Z,16.90
2023-03-08T01:37:52.933Z,16.29
2023-03-08T01:40:20.726Z,16.35
2023-03-08T01:42:47.286Z,16.78
2023-03-08T01:45:52.575Z,16.29
2023-03-08T01:48:20.098Z,16.34
2023-03-08T01:51:08.412Z,16.54
2023-03-08T01:53:35.489Z,16.60
2023-03-08T01:56:02.336Z,16.50
2023-03-08T01:58:29.114Z,16.38
2023-03-08T02:00:57.885Z,16.47
2023-03-08T02:03:25.056Z,16.61
2023-03-08T02:05:51.701Z,17.39
2023-03-08T02:08:21.185Z,17.65
2023-03-08T02:10:49.857Z,17.56
2023-03-08T02:13:22.379Z,17.38
2023-03-08T02:15:49.623Z,17.02
2023-03-08T02:18:18.352Z,17.12
2023-03-08T02:20:47.557Z,17.25
2023-03-08T02:23:16.781Z,17.52
2023-03-08T02:26:00.370Z,17.66
2023-03-08T02:28:28.631Z,17.64
2023-03-08T02:30:55.608Z,17.91
2023-03-08T02:33:25.047Z,17.80
2023-03-08T02:35:52.304Z,17.72
2023-03-08T02:38:19.710Z,17.68
2023-03-08T02:40:50.749Z,17.26
2023-03-08T02:43:18.376Z,17.35
2023-03-08T02:45:44.963Z,17.08
2023-03-08T02:48:11.754Z,16.61
2023-03-08T02:50:41.387Z,16.63
2023-03-08T02:53:09.072Z,16.96
2023-03-08T02:55:35.807Z,17.07
2023-03-08T02:58:05.083Z,17.10
2023-03-08T03:00:31.877Z,17.40
2023-03-08T03:02:59.225Z,17.41
2023-03-08T03:05:26.797Z,17.21
2023-03-08T03:07:58.582Z,17.13
2023-03-08T03:10:27.517Z,16.94
2023-03-08T03:12:55.359Z,16.74
2023-03-08T03:15:24.684Z,17.11
2023-03-08T03:17:54.464Z,16.99
2023-03-08T03:20:20.954Z,17.03
2023-03-08T03:22:48.463Z,17.01
2023-03-08T03:25:16.359Z,16.81
2023-03-08T03:27:44.460Z,16.91
2023-03-08T03:30:11.819Z,17.22
2023-03-08T03:32:39.123Z,17.19
2023-03-08T03:35:07.240Z,17.16
2023-03-08T03:37:36.202Z,17.06
2023-03-08T03:40:04.227Z,17.04
2023-03-08T03:42:31.813Z,17.07
2023-03-08T03:45:05.745Z,16.83
2023-03-08T03:47:32.585Z,16.98
2023-03-08T03:50:00.960Z,16.69
2023-03-08T03:52:33.079Z,16.89
2023-03-08T03:55:02.299Z,17.18
2023-03-08T03:57:29.081Z,17.49
2023-03-08T04:00:17.084Z,17.45
2023-03-08T04:02:47.735Z,17.16
2023-03-08T04:05:16.119Z,16.92
2023-03-08T04:07:45.669Z,17.32
2023-03-08T04:10:14.381Z,16.96
2023-03-08T04:12:43.733Z,16.95
2023-03-08T04:15:11.273Z,17.29
2023-03-08T04:17:40.546Z,17.20
2023-03-08T04:20:08.439Z,17.52
2023-03-08T04:22:40.864Z,17.17
2023-03-08T04:25:16.255Z,16.84
2023-03-08T04:27:48.663Z,17.16
2023-03-08T04:30:15.938Z,17.26
2023-03-08T04:32:44.084Z,16.93
2023-03-08T04:35:11.142Z,16.73
2023-03-08T04:37:39.664Z,16.87
2023-03-08T04:40:10.730Z,16.92
2023-03-08T04:42:44.838Z,16.80
2023-03-08T04:45:13.205Z,17.13
2023-03-08T04:47:39.971Z,17.18
2023-03-08T04:50:08.141Z,17.16
2023-03-08T04:52:35.373Z,17.50
2023-03-08T04:55:05.349Z,17.46
2023-03-08T04:57:32.224Z,17.20
2023-03-08T04:59:59.509Z,16.58
2023-03-08T05:02:26.362Z,16.85
2023-03-08T05:04:53.346Z,17.26
2023-03-08T05:07:22.309Z,17.63
2023-03-08T05:09:49.434Z,17.38
2023-03-08T05:12:16.009Z,17.47
2023-03-08T05:14:55.086Z,17.61
2023-03-08T05:17:23.740Z,17.59
2023-03-08T05:19:55.205Z,17.12
2023-03-08T05:22:25.852Z,17.10
2023-03-08T05:24:54.934Z,17.30
2023-03-08T05:27:21.606Z,17.15
2023-03-08T05:29:51.067Z,16.73
2023-03-08T05:32:22.273Z,16.57
2023-03-08T05:34:49.864Z,17.08
2023-03-08T05:37:27.224Z,16.90
2023-03-08T05:39:55.715Z,17.27
2023-03-08T05:42:22.987Z,17.26
2023-03-08T05:44:50.496Z,17.28
2023-03-08T05:47:20.772Z,16.63
2023-03-08T05:49:51.348Z,16.80
2023-03-08T05:52:18.412Z,17.32
2023-03-08T05:54:45.094Z,17.72
2023-03-08T05:57:15.214Z,17.85
2023-03-08T05:59:42.311Z,18.04
2023-03-08T06:02:10.908Z,17.64
2023-03-08T06:04:41.504Z,17.19
2023-03-08T06:07:14.605Z,17.93
2023-03-08T06:09:45.351Z,18.16
2023-03-08T06:12:21.113Z,18.40
2023-03-08T06:14:51.430Z,18.73
2023-03-08T06:17:26.710Z,18.07
2023-03-08T06:19:54.561Z,18.29
2023-03-08T06:22:21.542Z,18.66
2023-03-08T06:24:49.209Z,18.49
2023-03-08T06:27:18.339Z,18.50
2023-03-08T06:29:45.772Z,18.57
2023-03-08T06:32:13.727Z,18.26
2023-03-08T06:34:40.348Z,18.32
2023-03-08T06:37:10.103Z,18.28
2023-03-08T06:39:37.413Z,19.01
2023-03-08T06:42:05.891Z,19.39
2023-03-08T06:44:33.766Z,20.18
2023-03-08T06:47:00.651Z,20.39
2023-03-08T06:49:27.162Z,20.58
2023-03-08T06:51:53.780Z,21.04
2023-03-08T06:54:23.874Z,21.60
2023-03-08T06:56:50.492Z,21.91
2023-03-08T06:59:17.208Z,22.53
2023-03-08T07:01:45.359Z,22.45
2023-03-08T07:04:11.971Z,22.90
2023-03-08T07:06:44.289Z,22.78
2023-03-08T07:09:12.607Z,22.42
2023-03-08T07:11:39.641Z,22.90
2023-03-08T07:14:06.297Z,23.13
2023-03-08T07:16:33.376Z,23.09
2023-03-08T07:19:03.861Z,23.04
2023-03-08T07:21:32.911Z,22.94
2023-03-08T07:23:59.977Z,23.04
2023-03-08T07:26:27.124Z,22.88
2023-03-08T07:28:56.575Z,22.38
2023-03-08T07:31:23.152Z,22.49
2023-03-08T07:33:50.335Z,22.24
2023-03-08T07:36:17.745Z,22.65
2023-03-08T07:38:46.322Z,23.05
2023-03-08T07:41:14.110Z,22.75
2023-03-08T07:43:40.807Z,22.65
2023-03-08T07:46:23.205Z,22.37
2023-03-08T07:48:54.762Z,22.68
2023-03-08T07:51:22.219Z,23.12
2023-03-08T07:53:48.819Z,23.29
2023-03-08T07:56:15.546Z,23.58
2023-03-08T07:58:42.194Z,23.42
2023-03-08T08:01:12.138Z,22.83
2023-03-08T08:03:39.142Z,23.23
2023-03-08T08:06:07.128Z,23.36
2023-03-08T08:08:34.120Z,23.41
2023-03-08T08:11:02.487Z,23.44
2023-03-08T08:13:32.240Z,23.45
2023-03-08T08:16:00.118Z,23.41
2023-03-08T08:18:31.336Z,22.99
2023-03-08T08:21:06.234Z,23.40
2023-03-08T08:23:33.484Z,23.42
2023-03-08T08:26:00.272Z,23.70
2023-03-08T08:28:27.577Z,23.54
2023-03-08T08:30:57.842Z,23.21
2023-03-08T08:33:24.933Z,23.52
2023-03-08T08:35:51.842Z,23.53
2023-03-08T08:38:18.374Z,23.82
2023-03-08T08:40:45.288Z,23.55
2023-03-08T08:43:19.165Z,22.85
2023-03-08T08:45:47.725Z,22.74
2023-03-08T08:48:14.535Z,23.00
2023-03-08T08:50:42.246Z,23.15
2023-03-08T08:53:09.695Z,23.34
2023-03-08T08:55:36.625Z,23.54
2023-03-08T08:58:03.587Z,23.61
2023-03-08T09:00:31.365Z,23.39
2023-03-08T09:02:57.900Z,23.27
2023-03-08T09:05:24.631Z,23.40
2023-03-08T09:07:57.814Z,23.23
2023-03-08T09:10:25.369Z,22.84
2023-03-08T09:12:53.789Z,22.78
2023-03-08T09:15:21.197Z,22.69
2023-03-08T09:17:49.367Z,22.61
2023-03-08T09:20:21.505Z,22.60
2023-03-08T09:22:49.587Z,22.96
2023-03-08T09:25:18.914Z,22.19
2023-03-08T09:27:45.677Z,22.44
2023-03-08T09:30:13.893Z,23.03
2023-03-08T09:32:40.570Z,23.00
2023-03-08T09:35:08.303Z,23.64
2023-03-08T09:37:35.141Z,23.81
2023-03-08T09:40:02.025Z,24.06
2023-03-08T09:42:30.439Z,24.27
2023-03-08T09:45:07.887Z,23.59
2023-03-08T09:47:50.208Z,23.18
2023-03-08T09:50:48.974Z,23.57
2023-03-08T09:53:48.557Z,23.64
2023-03-08T09:56:46.244Z,23.66
2023-03-08T09:59:15.981Z,23.30
2023-03-08T10:01:51.360Z,23.02
2023-03-08T10:04:20.726Z,23.37
2023-03-08T10:07:09.905Z,23.92
2023-03-08T10:09:46.413Z,24.16
2023-03-08T10:12:28.850Z,24.20
2023-03-08T10:15:08.531Z,23.71
2023-03-08T10:17:49.656Z,23.58
2023-03-08T10:20:30.619Z,23.57
2023-03-08T10:23:15.727Z,23.91
2023-03-08T10:25:42.548Z,23.17
2023-03-08T10:28:12.515Z,23.70
2023-03-08T10:30:45.162Z,23.32
2023-03-08T10:33:13.267Z,23.01
2023-03-08T10:36:22.263Z,23.16
2023-03-08T10:39:19.348Z,23.15
2023-03-08T10:41:50.973Z,23.47
2023-03-08T10:44:51.528Z,23.42
2023-03-08T10:47:19.972Z,23.70
2023-03-08T10:49:46.927Z,24.05
2023-03-08T10:52:25.022Z,24.17
2023-03-08T10:55:08.383Z,23.77
2023-03-08T10:57:36.722Z,23.62
2023-03-08T11:00:20.161Z,23.97
2023-03-08T11:02:47.629Z,23.86
2023-03-08T11:05:19.120Z,23.74
2023-03-08T11:07:56.524Z,24.14
2023-03-08T11:10:25.528Z,23.92
2023-03-08T11:13:25.143Z,23.69
2023-03-08T11:16:08.402Z,23.48
2023-03-08T11:18:41.362Z,23.51
2023-03-08T11:21:49.915Z,23.08
2023-03-08T11:24:35.179Z,23.12
2023-03-08T11:27:23.884Z,23.48
2023-03-08T11:31:28.167Z,18.87
2023-03-08T11:34:21.616Z,21.09
2023-03-08T11:37:06.605Z,21.58
2023-03-08T11:39:48.995Z,22.18
2023-03-08T11:42:17.190Z,21.74
2023-03-08T11:44:51.669Z,21.88
2023-03-08T11:47:53.368Z,21.94
2023-03-08T11:50:36.153Z,22.21
2023-03-08T11:53:10.811Z,22.35
2023-03-08T11:56:01.051Z,22.07
2023-03-08T11:58:40.200Z,22.06
2023-03-08T12:01:48.917Z,21.89
2023-03-08T12:05:01.756Z,21.91
2023-03-08T12:07:38.713Z,22.60
2023-03-08T12:10:34.562Z,23.00
2023-03-08T12:13:07.173Z,23.11
2023-03-08T12:16:14.070Z,23.57
2023-03-08T12:19:12.625Z,23.00
2023-03-08T12:21:55.780Z,23.20
2023-03-08T12:24:50.095Z,23.20
2023-03-08T12:27:32.851Z,23.39
2023-03-08T12:30:11.494Z,23.81
2023-03-08T12:32:56.439Z,23.88
2023-03-08T12:35:30.947Z,24.60
2023-03-08T12:38:01.326Z,24.84
2023-03-08T12:40:51.185Z,24.11
2023-03-08T12:43:22.044Z,24.47
2023-03-08T12:45:59.437Z,24.91
2023-03-08T12:48:35.675Z,25.09
2023-03-08T12:51:08.207Z,24.88
2023-03-08T12:53:50.253Z,25.19
2023-03-08T12:56:18.296Z,25.40
2023-03-08T12:58:51.075Z,25.55
2023-03-08T13:01:37.779Z,25.50
2023-03-08T13:04:39.753Z,25.22
2023-03-08T13:07:18.166Z,24.62
2023-03-08T13:09:58.670Z,25.06
2023-03-08T13:12:48.688Z,25.68
2023-03-08T13:15:19.424Z,26.06
2023-03-08T13:18:05.841Z,25.59
2023-03-08T13:20:41.893Z,25.49
2023-03-08T13:23:11.592Z,25.69
2023-03-08T13:25:41.160Z,25.23
2023-03-08T13:28:11.271Z,25.05
2023-03-08T13:30:47.115Z,24.88
2023-03-08T13:33:31.460Z,25.77
2023-03-08T13:36:01.374Z,26.19
2023-03-08T13:38:34.334Z,26.53
2023-03-08T13:41:02.590Z,26.30
2023-03-08T13:43:33.318Z,25.90
2023-03-08T13:46:06.365Z,25.60
2023-03-08T13:48:37.137Z,25.23
2023-03-08T13:51:05.236Z,25.34
2023-03-08T13:53:35.512Z,25.06
2023-03-08T13:56:05.428Z,25.56
2023-03-08T13:58:35.150Z,25.66
2023-03-08T14:01:15.891Z,25.75
2023-03-08T14:03:45.099Z,25.92
2023-03-08T14:06:23.604Z,25.34
2023-03-08T14:08:52.126Z,25.34
2023-03-08T14:11:25.710Z,25.24
2023-03-08T14:13:57.746Z,24.79
2023-03-08T14:16:37.231Z,24.78
2023-03-08T14:19:15.089Z,24.73
2023-03-08T14:21:58.063Z,24.94
2023-03-08T14:24:28.226Z,25.04
2023-03-08T14:27:31.240Z,24.34
2023-03-08T14:30:04.882Z,24.60
2023-03-08T14:32:38.492Z,24.52
2023-03-08T14:35:19.741Z,24.54
2023-03-08T14:37:48.135Z,24.09
2023-03-08T14:40:29.707Z,24.47
2023-03-08T14:43:06.013Z,24.44
2023-03-08T14:45:37.062Z,24.30
2023-03-08T14:48:18.034Z,24.07
2023-03-08T14:51:02.654Z,24.02
2023-03-08T14:53:36.775Z,24.25
2023-03-08T14:56:17.178Z,24.34
2023-03-08T14:58:50.666Z,24.21
2023-03-08T15:01:31.801Z,24.25
2023-03-08T15:03:59.975Z,24.30
2023-03-08T15:06:32.733Z,24.32
2023-03-08T15:09:01.477Z,24.32
2023-03-08T15:11:31.668Z,23.86
2023-03-08T15:13:59.625Z,23.44
2023-03-08T15:16:31.138Z,23.55
2023-03-08T15:18:59.400Z,23.48
2023-03-08T15:21:28.140Z,23.62
2023-03-08T15:23:59.133Z,23.64
2023-03-08T15:26:29.011Z,23.46
2023-03-08T15:28:57.833Z,22.94
2023-03-08T15:31:27.452Z,22.67
2023-03-08T15:33:55.335Z,22.22
2023-03-08T15:36:25.129Z,22.88
2023-03-08T15:38:53.274Z,23.16
2023-03-08T15:41:21.280Z,22.90
2023-03-08T15:43:51.480Z,22.62
2023-03-08T15:46:21.855Z,22.57
2023-03-08T15:48:51.285Z,22.72
2023-03-08T15:51:20.923Z,22.88
2023-03-08T15:53:49.033Z,23.00
2023-03-08T15:56:16.952Z,23.10
2023-03-08T15:58:46.433Z,23.55
2023-03-08T16:01:14.753Z,23.30
2023-03-08T16:03:43.065Z,22.97
2023-03-08T16:06:12.251Z,22.71
2023-03-08T16:08:41.083Z,22.63
2023-03-08T16:11:16.860Z,22.73
2023-03-08T16:13:48.402Z,23.03
2023-03-08T16:16:16.348Z,22.79
2023-03-08T16:18:53.783Z,22.99
2023-03-08T16:21:21.862Z,23.18
2023-03-08T16:23:49.759Z,23.03
2023-03-08T16:26:17.949Z,22.56
2023-03-08T16:28:46.866Z,22.68
2023-03-08T16:31:15.375Z,23.25
2023-03-08T16:33:43.652Z,22.95
2023-03-08T16:36:12.051Z,22.93
2023-03-08T16:38:43.356Z,22.92
2023-03-08T16:41:13.515Z,22.83
2023-03-08T16:43:48.291Z,23.03
2023-03-08T16:46:20.945Z,23.36
2023-03-08T16:48:50.169Z,23.07
2023-03-08T16:51:19.778Z,22.72
2023-03-08T16:53:48.274Z,22.96
2023-03-08T16:56:21.081Z,23.22
2023-03-08T16:58:49.107Z,23.04
2023-03-08T17:01:26.249Z,22.55
2023-03-08T17:03:55.968Z,22.73
2023-03-08T17:06:25.714Z,22.67
2023-03-08T17:08:54.141Z,22.44
2023-03-08T17:11:27.353Z,22.39
2023-03-08T17:13:58.786Z,22.46
2023-03-08T17:16:28.424Z,22.57
2023-03-08T17:18:57.757Z,22.42
2023-03-08T17:21:26.391Z,22.43
2023-03-08T17:23:54.586Z,22.78
2023-03-08T17:26:23.248Z,22.14
2023-03-08T17:28:52.391Z,22.21
2023-03-08T17:31:21.896Z,22.10
2023-03-08T17:33:50.755Z,22.40
2023-03-08T17:36:22.511Z,22.51
2023-03-08T17:38:53.638Z,22.39
2023-03-08T17:41:25.810Z,22.45
2023-03-08T17:43:53.993Z,22.45
2023-03-08T17:46:23.461Z,22.19
2023-03-08T17:48:53.264Z,21.88
2023-03-08T17:51:29.393Z,21.98
2023-03-08T17:53:58.248Z,21.88
2023-03-08T17:56:29.368Z,21.82
2023-03-08T17:59:03.775Z,21.71
2023-03-08T18:01:32.275Z,21.48
2023-03-08T18:04:00.756Z,21.68
2023-03-08T18:06:33.616Z,21.77
2023-03-08T18:09:03.818Z,21.91
2023-03-08T18:11:37.327Z,21.69
2023-03-08T18:14:05.901Z,21.93
2023-03-08T18:16:33.981Z,21.75
2023-03-08T18:19:07.979Z,21.46
2023-03-08T18:21:36.634Z,20.94
2023-03-08T18:24:05.375Z,20.81
2023-03-08T18:26:36.732Z,20.95
2023-03-08T18:29:04.776Z,21.01
2023-03-08T18:31:35.227Z,20.89
2023-03-08T18:34:03.575Z,20.60
2023-03-08T18:36:31.802Z,20.55
2023-03-08T18:38:59.924Z,20.53
2023-03-08T18:41:29.590Z,20.37
2023-03-08T18:44:01.223Z,20.31
2023-03-08T18:46:31.616Z,20.32
2023-03-08T18:49:07.901Z,20.48
2023-03-08T18:51:37.414Z,20.27
2023-03-08T18:54:09.257Z,20.20
2023-03-08T18:56:39.109Z,20.12
2023-03-08T18:59:07.879Z,20.10
2023-03-08T19:01:36.819Z,20.02
2023-03-08T19:04:06.327Z,19.89
2023-03-08T19:06:35.208Z,19.70
2023-03-08T19:09:11.013Z,19.58
2023-03-08T19:11:39.378Z,19.32
2023-03-08T19:14:07.971Z,19.12
2023-03-08T19:16:36.743Z,18.87
2023-03-08T19:19:07.275Z,18.33
2023-03-08T19:21:37.939Z,18.45
2023-03-08T19:24:06.140Z,18.55
2023-03-08T19:26:38.918Z,18.52
2023-03-08T19:29:23.173Z,18.55
2023-03-08T19:31:53.184Z,18.47
2023-03-08T19:34:26.413Z,18.27
2023-03-08T19:36:54.382Z,18.38
2023-03-08T19:39:27.773Z,18.34
2023-03-08T19:42:00.701Z,18.37
2023-03-08T19:44:29.033Z,18.13
2023-03-08T19:46:59.663Z,18.08
2023-03-08T19:49:30.153Z,18.08
2023-03-08T19:51:59.702Z,17.88
2023-03-08T19:54:28.292Z,17.68
2023-03-08T19:56:56.381Z,17.75
2023-03-08T19:59:31.072Z,17.83
2023-03-08T20:01:59.007Z,17.77
2023-03-08T20:04:27.226Z,17.83
2023-03-08T20:07:01.391Z,17.72
2023-03-08T20:09:30.047Z,17.51
2023-03-08T20:11:59.894Z,17.39
2023-03-08T20:14:29.374Z,17.21
2023-03-08T20:16:59.133Z,17.01
2023-03-08T20:19:31.859Z,16.90
2023-03-08T20:22:00.688Z,17.06
2023-03-08T20:24:35.467Z,17.27
2023-03-08T20:27:04.239Z,17.04
2023-03-08T20:29:32.211Z,17.08
2023-03-08T20:32:00.348Z,17.08
2023-03-08T20:34:29.549Z,17.02
2023-03-08T20:36:58.277Z,16.95
2023-03-08T20:39:26.948Z,17.03
2023-03-08T20:41:56.184Z,16.87
2023-03-08T20:44:24.634Z,16.78
2023-03-08T20:46:53.590Z,16.58
2023-03-08T20:49:21.552Z,16.25
2023-03-08T20:51:49.776Z,16.20
2023-03-08T20:54:22.918Z,16.17
2023-03-08T20:56:50.822Z,15.81
2023-03-08T20:59:23.222Z,15.84
2023-03-08T21:01:51.597Z,15.95
2023-03-08T21:04:20.073Z,15.75
2023-03-08T21:06:55.597Z,15.66
2023-03-08T21:09:23.679Z,15.63
2023-03-08T21:11:51.777Z,15.53
2023-03-08T21:14:23.904Z,15.46
2023-03-08T21:16:52.986Z,15.32
2023-03-08T21:19:22.149Z,15.32
2023-03-08T21:21:51.407Z,15.06
2023-03-08T21:24:21.215Z,15.14
2023-03-08T21:26:50.021Z,15.27
2023-03-08T21:29:19.397Z,15.21
2023-03-08T21:31:52.126Z,15.34
2023-03-08T21:34:20.937Z,15.45
2023-03-08T21:36:49.096Z,15.43
2023-03-08T21:39:17.146Z,15.61
2023-03-08T21:41:46.836Z,15.47
2023-03-08T21:44:17.932Z,15.27
2023-03-08T21:46:46.663Z,15.37
2023-03-08T21:49:17.778Z,15.23
2023-03-08T21:51:45.785Z,15.36
2023-03-08T21:54:14.171Z,15.33
2023-03-08T21:56:42.094Z,15.49
2023-03-08T21:59:10.183Z,15.47
2023-03-08T22:01:39.109Z,15.58
2023-03-08T22:04:07.208Z,15.59
2023-03-08T22:06:35.287Z,15.80
2023-03-08T22:09:09.966Z,15.63
2023-03-08T22:11:38.248Z,15.72
2023-03-08T22:14:06.623Z,15.51
2023-03-08T22:16:38.051Z,15.48
2023-03-08T22:19:06.254Z,15.59
2023-03-08T22:21:34.352Z,15.53
2023-03-08T22:24:02.941Z,15.70
2023-03-08T22:26:31.218Z,15.89
2023-03-08T22:29:00.073Z,15.79
2023-03-08T22:31:29.112Z,16.09
2023-03-08T22:33:58.672Z,16.25
2023-03-08T22:36:29.818Z,16.37
2023-03-08T22:38:57.880Z,16.45
2023-03-08T22:41:26.837Z,16.36
2023-03-08T22:43:55.078Z,16.30
2023-03-08T22:46:26.007Z,16.41
2023-03-08T22:48:56.559Z,16.73
2023-03-08T22:51:24.945Z,16.70
2023-03-08T22:53:52.946Z,16.55
2023-03-08T22:56:25.871Z,16.64
2023-03-08T22:58:53.794Z,16.66
2023-03-08T23:01:22.814Z,16.75
2023-03-08T23:03:53.691Z,16.85
2023-03-08T23:06:22.031Z,16.90
2023-03-08T23:08:50.577Z,16.99
2023-03-08T23:11:23.872Z,17.20
2023-03-08T23:13:52.706Z,17.14
2023-03-08T23:16:20.882Z,17.20
2023-03-08T23:18:49.706Z,17.30
2023-03-08T23:21:18.688Z,17.44
2023-03-08T23:23:46.762Z,17.70
2023-03-08T23:26:17.951Z,17.83
2023-03-08T23:28:45.985Z,17.94
2023-03-08T23:31:19.818Z,18.39
2023-03-08T23:33:49.097Z,18.40
